Barnham, United Kingdom
Current Conditions -  °F | °C
As of 6:50 AM on Sunday 28 Dec 2014 (Local Time) from EGKK Reporting Station
Clear Clear  
Wind Chill: 28°   Ceiling: Unl
Heat Index: 36°   Visibility: 6mi
Dew Point: 28°   Wind: 10mph
Humidity: 75%   Direction: 20°NNE
Pressure: 30.21"   Gusts: NA
Location:  50.83°N, 0.64°W
Report Text: EGKK 280650Z 02009KT 350V130 CAVOK 02/M02 Q1023
Loading
Personal Weather Stations






























Interactive Weather Map New forecast layout! Learn more

10-Day Weather Forecast

Advertisements
Track Severe Weather on mobile